Strona główna
METAR-TAF:

METAR-TAF

Lotnisko :

Port lotniczy Kansas City

Kansas City, Missouri, Stany Zjednoczone

Szerokość geograficzna: 39-17-50N, Długość geograficzna: 094-43-50W, wysokość: 312 m

Aktualna obserwacja pogody

Raport powstał 1 godzina i 11 minut temu, godzina 04:53 UTC
Wiatr 5 kt od zachód
Temperatura 3°C
Wilgotność 65%
Ciśnienie 1026 hPa
Widzialność: 16.1 km
bezchmurnie

METAR: KMCI 170453Z 28005KT 10SM CLR 03/M03 A3029 RMK AO2 SLP261 T00331028 $

czas: 00:04 (06:04 UTC)

Prognoza

Raport powstał 44 minut temu, godzina 05:20 UTC
Prognoza ważna od 17 godzina 06 UTC do 18 godzina 06 UTC
Wiatr 4 kt z kierunków zmiennych
Widzialność: 10 km
bezchmurnie

TAF: KMCI 170520Z 1706/1806 VRB04KT P6SM SKC

Obserwacja i prognoza pogody dla ponad 4000 lotnisk (raport METAR i TAF).

Dostępne stacje oznaczono żółtymi i czerwonymi punktami na mapie.

Najedź kursorem aby zobaczyć nazwę stacji.

Kliknij aby zobaczyć obserwacje i prognozy pogody.

Aby zmienić mapę: kliknij na zielony przycisk z czarnym krzyżykiem, aby powiększyć; na zielony przycisk z myślnikiem, aby pomniejszyć; na zielone strzałki, aby przejść do map sąsiednich.


METAR-TAF: